sensor_id;sensor_type;location;lat;lon;timestamp;P1;durP1;ratioP1;P2;durP2;ratioP2
50291;SDS011;36190;54.980;73.388;2023-08-06T09:47:03;12.63;;;7.20;;
50291;SDS011;36190;54.980;73.388;2023-08-06T09:49:40;17.48;;;7.93;;
50291;SDS011;36190;54.980;73.388;2023-08-06T09:52:11;17.17;;;7.65;;
50291;SDS011;36190;54.980;73.388;2023-08-06T09:54:39;22.30;;;8.55;;
50291;SDS011;36190;54.980;73.388;2023-08-06T09:57:07;12.27;;;7.60;;
50291;SDS011;36190;54.980;73.388;2023-08-06T09:59:35;12.48;;;7.07;;
50291;SDS011;36190;54.980;73.388;2023-08-06T10:02:09;16.80;;;8.02;;
50291;SDS011;36190;54.980;73.388;2023-08-06T10:04:39;13.45;;;7.35;;
50291;SDS011;36190;54.980;73.388;2023-08-06T10:07:09;13.43;;;7.50;;
50291;SDS011;36190;54.980;73.388;2023-08-06T10:09:37;14.02;;;7.85;;
50291;SDS011;36190;54.980;73.388;2023-08-06T10:12:05;10.68;;;6.72;;
50291;SDS011;36190;54.980;73.388;2023-08-06T10:14:33;13.05;;;7.32;;
50291;SDS011;36190;54.980;73.388;2023-08-06T10:17:05;12.30;;;7.15;;
50291;SDS011;36190;54.980;73.388;2023-08-06T10:19:34;13.30;;;7.07;;
50291;SDS011;36190;54.980;73.388;2023-08-06T10:22:08;11.80;;;6.85;;
50291;SDS011;36190;54.980;73.388;2023-08-06T10:24:46;11.65;;;6.82;;
50291;SDS011;36190;54.980;73.388;2023-08-06T10:27:19;18.20;;;7.03;;
50291;SDS011;36190;54.980;73.388;2023-08-06T10:29:50;11.75;;;6.38;;
50291;SDS011;36190;54.980;73.388;2023-08-06T10:32:17;17.80;;;7.43;;
50291;SDS011;36190;54.980;73.388;2023-08-06T10:34:57;10.57;;;7.00;;
50291;SDS011;36190;54.980;73.388;2023-08-06T10:37:34;12.55;;;7.03;;
50291;SDS011;36190;54.980;73.388;2023-08-06T10:40:03;10.95;;;6.85;;
50291;SDS011;36190;54.980;73.388;2023-08-06T10:42:32;11.93;;;6.72;;
50291;SDS011;36190;54.980;73.388;2023-08-06T10:50:22;10.98;;;6.30;;
50291;SDS011;36190;54.980;73.388;2023-08-06T10:52:51;10.68;;;6.38;;
50291;SDS011;36190;54.980;73.388;2023-08-06T10:55:22;11.80;;;6.35;;
50291;SDS011;36190;54.980;73.388;2023-08-06T10:57:50;13.93;;;7.28;;
50291;SDS011;36190;54.980;73.388;2023-08-06T11:00:18;11.43;;;6.75;;
50291;SDS011;36190;54.980;73.388;2023-08-06T11:02:48;12.45;;;7.03;;
50291;SDS011;36190;54.980;73.388;2023-08-06T11:05:15;10.18;;;6.38;;
50291;SDS011;36190;54.980;73.388;2023-08-06T11:07:44;10.50;;;6.45;;
50291;SDS011;36190;54.980;73.388;2023-08-06T11:10:13;13.40;;;6.40;;
50291;SDS011;36190;54.980;73.388;2023-08-06T11:12:41;16.05;;;7.25;;
50291;SDS011;36190;54.980;73.388;2023-08-06T11:15:08;10.60;;;6.05;;
50291;SDS011;36190;54.980;73.388;2023-08-06T11:17:37;11.82;;;6.03;;
50291;SDS011;36190;54.980;73.388;2023-08-06T11:20:07;12.32;;;6.55;;
50291;SDS011;36190;54.980;73.388;2023-08-06T11:22:35;10.10;;;6.15;;
50291;SDS011;36190;54.980;73.388;2023-08-06T11:25:06;12.00;;;6.45;;
50291;SDS011;36190;54.980;73.388;2023-08-06T11:27:34;11.95;;;6.38;;
50291;SDS011;36190;54.980;73.388;2023-08-06T11:30:02;16.17;;;7.20;;
50291;SDS011;36190;54.980;73.388;2023-08-06T11:32:30;10.55;;;6.53;;
50291;SDS011;36190;54.980;73.388;2023-08-06T11:34:58;10.70;;;6.03;;
50291;SDS011;36190;54.980;73.388;2023-08-06T11:37:35;11.10;;;6.15;;
50291;SDS011;36190;54.980;73.388;2023-08-06T11:40:09;9.63;;;5.53;;
50291;SDS011;36190;54.980;73.388;2023-08-06T11:42:37;11.90;;;5.47;;
50291;SDS011;36190;54.980;73.388;2023-08-06T11:45:05;11.20;;;5.65;;
50291;SDS011;36190;54.980;73.388;2023-08-06T11:47:36;8.77;;;5.55;;
50291;SDS011;36190;54.980;73.388;2023-08-06T11:50:06;10.05;;;5.82;;
50291;SDS011;36190;54.980;73.388;2023-08-06T11:52:34;11.45;;;5.93;;
50291;SDS011;36190;54.980;73.388;2023-08-06T11:55:09;11.07;;;5.40;;
50291;SDS011;36190;54.980;73.388;2023-08-06T11:57:36;10.23;;;5.28;;
50291;SDS011;36190;54.980;73.388;2023-08-06T12:00:05;13.98;;;6.10;;
50291;SDS011;36190;54.980;73.388;2023-08-06T12:02:34;9.90;;;4.90;;
50291;SDS011;36190;54.980;73.388;2023-08-06T12:05:03;10.57;;;5.60;;
50291;SDS011;36190;54.980;73.388;2023-08-06T12:07:31;11.95;;;5.55;;
50291;SDS011;36190;54.980;73.388;2023-08-06T12:09:59;9.45;;;5.47;;
50291;SDS011;36190;54.980;73.388;2023-08-06T12:12:28;14.80;;;5.93;;
50291;SDS011;36190;54.980;73.388;2023-08-06T12:14:56;10.18;;;5.15;;
50291;SDS011;36190;54.980;73.388;2023-08-06T12:17:24;11.07;;;5.15;;
50291;SDS011;36190;54.980;73.388;2023-08-06T12:19:51;9.90;;;5.80;;
50291;SDS011;36190;54.980;73.388;2023-08-06T12:22:19;16.85;;;5.50;;
50291;SDS011;36190;54.980;73.388;2023-08-06T12:24:46;13.75;;;5.30;;
50291;SDS011;36190;54.980;73.388;2023-08-06T12:27:14;8.20;;;4.75;;
50291;SDS011;36190;54.980;73.388;2023-08-06T12:29:43;11.63;;;4.95;;
50291;SDS011;36190;54.980;73.388;2023-08-06T12:32:13;10.43;;;4.78;;
50291;SDS011;36190;54.980;73.388;2023-08-06T12:34:41;9.93;;;4.70;;
50291;SDS011;36190;54.980;73.388;2023-08-06T12:37:09;11.45;;;4.68;;
50291;SDS011;36190;54.980;73.388;2023-08-06T12:39:36;9.13;;;4.35;;
50291;SDS011;36190;54.980;73.388;2023-08-06T12:42:05;10.10;;;4.68;;
50291;SDS011;36190;54.980;73.388;2023-08-06T12:44:32;9.18;;;4.50;;
50291;SDS011;36190;54.980;73.388;2023-08-06T12:47:01;9.55;;;4.40;;
50291;SDS011;36190;54.980;73.388;2023-08-06T12:49:29;9.65;;;4.35;;
50291;SDS011;36190;54.980;73.388;2023-08-06T12:51:57;9.95;;;4.18;;
50291;SDS011;36190;54.980;73.388;2023-08-06T12:54:25;8.68;;;4.60;;
50291;SDS011;36190;54.980;73.388;2023-08-06T12:56:53;10.13;;;4.53;;
50291;SDS011;36190;54.980;73.388;2023-08-06T12:59:21;9.35;;;4.28;;
50291;SDS011;36190;54.980;73.388;2023-08-06T13:01:49;16.38;;;5.60;;
50291;SDS011;36190;54.980;73.388;2023-08-06T13:04:18;15.88;;;5.68;;
50291;SDS011;36190;54.980;73.388;2023-08-06T13:06:45;9.30;;;4.20;;
50291;SDS011;36190;54.980;73.388;2023-08-06T13:09:13;8.52;;;3.70;;
50291;SDS011;36190;54.980;73.388;2023-08-06T13:11:40;9.43;;;3.78;;
50291;SDS011;36190;54.980;73.388;2023-08-06T13:14:11;9.23;;;4.28;;
50291;SDS011;36190;54.980;73.388;2023-08-06T13:16:40;7.88;;;3.60;;
50291;SDS011;36190;54.980;73.388;2023-08-06T13:19:09;8.80;;;4.15;;
50291;SDS011;36190;54.980;73.388;2023-08-06T13:21:58;15.55;;;4.63;;
50291;SDS011;36190;54.980;73.388;2023-08-06T13:24:29;6.95;;;3.70;;
50291;SDS011;36190;54.980;73.388;2023-08-06T13:26:56;8.73;;;3.88;;
50291;SDS011;36190;54.980;73.388;2023-08-06T13:29:24;8.15;;;4.00;;
50291;SDS011;36190;54.980;73.388;2023-08-06T13:31:52;10.35;;;3.80;;
50291;SDS011;36190;54.980;73.388;2023-08-06T13:34:20;7.47;;;3.45;;
50291;SDS011;36190;54.980;73.388;2023-08-06T13:36:48;8.70;;;3.97;;
50291;SDS011;36190;54.980;73.388;2023-08-06T13:39:17;12.82;;;4.30;;
50291;SDS011;36190;54.980;73.388;2023-08-06T13:41:45;10.30;;;4.35;;
50291;SDS011;36190;54.980;73.388;2023-08-06T13:44:12;10.05;;;4.22;;
50291;SDS011;36190;54.980;73.388;2023-08-06T13:46:40;12.35;;;4.82;;
50291;SDS011;36190;54.980;73.388;2023-08-06T13:49:09;30.13;;;6.70;;
50291;SDS011;36190;54.980;73.388;2023-08-06T13:51:36;12.93;;;4.40;;
50291;SDS011;36190;54.980;73.388;2023-08-06T13:54:04;10.50;;;3.47;;
50291;SDS011;36190;54.980;73.388;2023-08-06T13:56:34;11.57;;;3.75;;
50291;SDS011;36190;54.980;73.388;2023-08-06T13:59:03;7.32;;;3.50;;
50291;SDS011;36190;54.980;73.388;2023-08-06T14:01:31;8.25;;;3.05;;
50291;SDS011;36190;54.980;73.388;2023-08-06T14:03:58;6.75;;;2.80;;
50291;SDS011;36190;54.980;73.388;2023-08-06T14:06:26;6.20;;;2.70;;
50291;SDS011;36190;54.980;73.388;2023-08-06T14:08:53;7.38;;;3.05;;
50291;SDS011;36190;54.980;73.388;2023-08-06T14:11:21;7.05;;;3.00;;
50291;SDS011;36190;54.980;73.388;2023-08-06T14:13:50;6.53;;;2.78;;
50291;SDS011;36190;54.980;73.388;2023-08-06T14:16:17;6.78;;;2.95;;
50291;SDS011;36190;54.980;73.388;2023-08-06T14:18:45;8.02;;;2.90;;
50291;SDS011;36190;54.980;73.388;2023-08-06T14:21:13;5.88;;;3.03;;
50291;SDS011;36190;54.980;73.388;2023-08-06T14:23:40;10.98;;;3.20;;
50291;SDS011;36190;54.980;73.388;2023-08-06T14:26:08;8.93;;;2.85;;
50291;SDS011;36190;54.980;73.388;2023-08-06T14:28:36;5.68;;;2.70;;
50291;SDS011;36190;54.980;73.388;2023-08-06T14:31:05;5.78;;;2.80;;
50291;SDS011;36190;54.980;73.388;2023-08-06T14:33:33;6.47;;;2.85;;
50291;SDS011;36190;54.980;73.388;2023-08-06T14:36:00;7.10;;;3.00;;
50291;SDS011;36190;54.980;73.388;2023-08-06T14:38:28;44.25;;;7.28;;
50291;SDS011;36190;54.980;73.388;2023-08-06T14:40:55;10.68;;;3.00;;
50291;SDS011;36190;54.980;73.388;2023-08-06T14:43:24;7.38;;;2.97;;
50291;SDS011;36190;54.980;73.388;2023-08-06T14:45:51;7.65;;;2.97;;
50291;SDS011;36190;54.980;73.388;2023-08-06T14:48:20;7.97;;;2.67;;
50291;SDS011;36190;54.980;73.388;2023-08-06T14:50:47;6.25;;;2.88;;
50291;SDS011;36190;54.980;73.388;2023-08-06T14:53:15;7.13;;;3.20;;
50291;SDS011;36190;54.980;73.388;2023-08-06T14:55:42;10.23;;;2.83;;
50291;SDS011;36190;54.980;73.388;2023-08-06T14:58:10;8.82;;;3.08;;
50291;SDS011;36190;54.980;73.388;2023-08-06T15:00:37;13.90;;;4.57;;
50291;SDS011;36190;54.980;73.388;2023-08-06T15:03:05;7.78;;;3.17;;
50291;SDS011;36190;54.980;73.388;2023-08-06T15:05:34;10.38;;;3.45;;
50291;SDS011;36190;54.980;73.388;2023-08-06T15:08:01;8.82;;;3.20;;
50291;SDS011;36190;54.980;73.388;2023-08-06T15:10:29;12.25;;;3.38;;
50291;SDS011;36190;54.980;73.388;2023-08-06T15:12:57;9.82;;;3.72;;
50291;SDS011;36190;54.980;73.388;2023-08-06T15:15:26;9.35;;;3.30;;
50291;SDS011;36190;54.980;73.388;2023-08-06T15:17:53;8.52;;;3.40;;
50291;SDS011;36190;54.980;73.388;2023-08-06T15:20:21;12.20;;;3.30;;
50291;SDS011;36190;54.980;73.388;2023-08-06T15:22:51;6.85;;;3.05;;
50291;SDS011;36190;54.980;73.388;2023-08-06T15:25:18;8.20;;;3.25;;
50291;SDS011;36190;54.980;73.388;2023-08-06T15:27:46;7.40;;;3.20;;
50291;SDS011;36190;54.980;73.388;2023-08-06T15:30:14;8.60;;;3.50;;
50291;SDS011;36190;54.980;73.388;2023-08-06T15:32:41;12.65;;;3.47;;
50291;SDS011;36190;54.980;73.388;2023-08-06T15:35:10;6.70;;;3.35;;
50291;SDS011;36190;54.980;73.388;2023-08-06T15:37:37;8.85;;;3.10;;
50291;SDS011;36190;54.980;73.388;2023-08-06T15:40:07;8.00;;;3.33;;
50291;SDS011;36190;54.980;73.388;2023-08-06T15:42:34;11.90;;;3.78;;
50291;SDS011;36190;54.980;73.388;2023-08-06T15:45:02;9.27;;;3.33;;
50291;SDS011;36190;54.980;73.388;2023-08-06T15:47:30;12.57;;;4.22;;
50291;SDS011;36190;54.980;73.388;2023-08-06T15:49:57;8.77;;;4.25;;
50291;SDS011;36190;54.980;73.388;2023-08-06T15:52:25;11.13;;;4.20;;
50291;SDS011;36190;54.980;73.388;2023-08-06T15:54:52;12.32;;;4.10;;
50291;SDS011;36190;54.980;73.388;2023-08-06T15:57:21;13.25;;;4.07;;
50291;SDS011;36190;54.980;73.388;2023-08-06T15:59:49;8.50;;;4.10;;
50291;SDS011;36190;54.980;73.388;2023-08-06T16:02:16;9.90;;;3.75;;
50291;SDS011;36190;54.980;73.388;2023-08-06T16:04:44;9.77;;;4.13;;
50291;SDS011;36190;54.980;73.388;2023-08-06T16:07:11;13.75;;;4.18;;
50291;SDS011;36190;54.980;73.388;2023-08-06T16:09:39;10.02;;;3.83;;
50291;SDS011;36190;54.980;73.388;2023-08-06T16:12:06;7.88;;;3.10;;
50291;SDS011;36190;54.980;73.388;2023-08-06T16:14:35;9.52;;;3.80;;
50291;SDS011;36190;54.980;73.388;2023-08-06T16:17:04;8.15;;;3.35;;
50291;SDS011;36190;54.980;73.388;2023-08-06T16:19:31;10.63;;;3.65;;
50291;SDS011;36190;54.980;73.388;2023-08-06T16:21:59;8.20;;;3.28;;
50291;SDS011;36190;54.980;73.388;2023-08-06T16:24:26;7.10;;;3.40;;
50291;SDS011;36190;54.980;73.388;2023-08-06T16:26:54;6.95;;;2.80;;
50291;SDS011;36190;54.980;73.388;2023-08-06T16:29:21;7.50;;;2.97;;
50291;SDS011;36190;54.980;73.388;2023-08-06T16:31:50;6.72;;;2.70;;
50291;SDS011;36190;54.980;73.388;2023-08-06T16:34:18;13.82;;;3.33;;
50291;SDS011;36190;54.980;73.388;2023-08-06T16:36:45;7.00;;;2.90;;
50291;SDS011;36190;54.980;73.388;2023-08-06T16:39:13;7.63;;;3.25;;
50291;SDS011;36190;54.980;73.388;2023-08-06T16:41:45;10.52;;;3.33;;
50291;SDS011;36190;54.980;73.388;2023-08-06T16:44:12;9.93;;;3.13;;
50291;SDS011;36190;54.980;73.388;2023-08-06T16:46:39;6.88;;;2.67;;
50291;SDS011;36190;54.980;73.388;2023-08-06T16:49:08;5.80;;;2.70;;
50291;SDS011;36190;54.980;73.388;2023-08-06T16:51:36;8.65;;;3.05;;
50291;SDS011;36190;54.980;73.388;2023-08-06T16:54:03;6.82;;;2.97;;
50291;SDS011;36190;54.980;73.388;2023-08-06T16:56:31;7.43;;;3.13;;
50291;SDS011;36190;54.980;73.388;2023-08-06T16:58:59;5.22;;;2.65;;
50291;SDS011;36190;54.980;73.388;2023-08-06T17:01:27;5.95;;;2.75;;
50291;SDS011;36190;54.980;73.388;2023-08-06T17:03:54;6.95;;;3.10;;
50291;SDS011;36190;54.980;73.388;2023-08-06T17:06:23;6.95;;;3.03;;
50291;SDS011;36190;54.980;73.388;2023-08-06T17:08:51;6.32;;;3.08;;
50291;SDS011;36190;54.980;73.388;2023-08-06T17:11:18;6.40;;;2.97;;
50291;SDS011;36190;54.980;73.388;2023-08-06T17:13:47;8.07;;;3.30;;
50291;SDS011;36190;54.980;73.388;2023-08-06T17:16:14;8.68;;;3.17;;
50291;SDS011;36190;54.980;73.388;2023-08-06T17:18:43;8.52;;;3.08;;
50291;SDS011;36190;54.980;73.388;2023-08-06T17:21:11;7.15;;;2.75;;
50291;SDS011;36190;54.980;73.388;2023-08-06T17:23:39;8.00;;;3.10;;
50291;SDS011;36190;54.980;73.388;2023-08-06T17:26:07;7.03;;;2.70;;
50291;SDS011;36190;54.980;73.388;2023-08-06T17:28:34;4.93;;;2.45;;
50291;SDS011;36190;54.980;73.388;2023-08-06T17:31:02;10.25;;;3.00;;
50291;SDS011;36190;54.980;73.388;2023-08-06T17:33:32;6.72;;;2.50;;
50291;SDS011;36190;54.980;73.388;2023-08-06T17:35:59;7.82;;;2.80;;
50291;SDS011;36190;54.980;73.388;2023-08-06T17:38:27;7.10;;;2.80;;
50291;SDS011;36190;54.980;73.388;2023-08-06T17:40:55;7.13;;;3.10;;
50291;SDS011;36190;54.980;73.388;2023-08-06T17:43:25;7.60;;;2.83;;
50291;SDS011;36190;54.980;73.388;2023-08-06T17:45:52;6.90;;;2.80;;
50291;SDS011;36190;54.980;73.388;2023-08-06T17:48:20;5.97;;;2.80;;
50291;SDS011;36190;54.980;73.388;2023-08-06T17:50:48;5.68;;;2.70;;
50291;SDS011;36190;54.980;73.388;2023-08-06T17:53:15;6.15;;;2.63;;
50291;SDS011;36190;54.980;73.388;2023-08-06T17:55:43;7.95;;;2.70;;
50291;SDS011;36190;54.980;73.388;2023-08-06T17:58:12;7.00;;;3.38;;
50291;SDS011;36190;54.980;73.388;2023-08-06T18:00:40;6.07;;;2.90;;
50291;SDS011;36190;54.980;73.388;2023-08-06T18:03:09;8.93;;;2.90;;
50291;SDS011;36190;54.980;73.388;2023-08-06T18:05:37;9.98;;;2.90;;
50291;SDS011;36190;54.980;73.388;2023-08-06T18:08:04;7.07;;;2.80;;
50291;SDS011;36190;54.980;73.388;2023-08-06T18:10:32;5.72;;;2.90;;
50291;SDS011;36190;54.980;73.388;2023-08-06T18:12:59;9.18;;;2.90;;
50291;SDS011;36190;54.980;73.388;2023-08-06T18:15:28;5.28;;;2.53;;
50291;SDS011;36190;54.980;73.388;2023-08-06T18:17:56;7.78;;;2.90;;
50291;SDS011;36190;54.980;73.388;2023-08-06T18:20:24;4.75;;;2.50;;
50291;SDS011;36190;54.980;73.388;2023-08-06T18:22:51;5.93;;;2.63;;
50291;SDS011;36190;54.980;73.388;2023-08-06T18:25:18;6.50;;;2.63;;
50291;SDS011;36190;54.980;73.388;2023-08-06T18:27:46;6.75;;;2.72;;
50291;SDS011;36190;54.980;73.388;2023-08-06T18:30:14;6.78;;;2.83;;
50291;SDS011;36190;54.980;73.388;2023-08-06T18:32:43;7.78;;;2.95;;
50291;SDS011;36190;54.980;73.388;2023-08-06T18:35:11;6.82;;;2.88;;
50291;SDS011;36190;54.980;73.388;2023-08-06T18:37:39;7.65;;;2.75;;
50291;SDS011;36190;54.980;73.388;2023-08-06T18:40:07;7.20;;;2.72;;
50291;SDS011;36190;54.980;73.388;2023-08-06T18:42:35;7.50;;;2.85;;
50291;SDS011;36190;54.980;73.388;2023-08-06T18:45:04;7.22;;;2.90;;
50291;SDS011;36190;54.980;73.388;2023-08-06T18:47:33;7.68;;;3.03;;
50291;SDS011;36190;54.980;73.388;2023-08-06T18:50:02;6.88;;;2.67;;
50291;SDS011;36190;54.980;73.388;2023-08-06T18:52:30;5.85;;;2.78;;
50291;SDS011;36190;54.980;73.388;2023-08-06T18:54:57;5.97;;;2.60;;
50291;SDS011;36190;54.980;73.388;2023-08-06T18:57:25;6.43;;;2.75;;
50291;SDS011;36190;54.980;73.388;2023-08-06T18:59:54;6.22;;;2.80;;
50291;SDS011;36190;54.980;73.388;2023-08-06T19:02:22;5.68;;;2.60;;
50291;SDS011;36190;54.980;73.388;2023-08-06T19:04:49;6.45;;;2.70;;
50291;SDS011;36190;54.980;73.388;2023-08-06T19:07:18;6.80;;;2.90;;
50291;SDS011;36190;54.980;73.388;2023-08-06T19:09:46;6.53;;;2.88;;
50291;SDS011;36190;54.980;73.388;2023-08-06T19:12:13;7.57;;;2.78;;
50291;SDS011;36190;54.980;73.388;2023-08-06T19:14:41;6.70;;;2.90;;
50291;SDS011;36190;54.980;73.388;2023-08-06T19:17:08;8.02;;;2.90;;
50291;SDS011;36190;54.980;73.388;2023-08-06T19:19:36;6.80;;;2.83;;
50291;SDS011;36190;54.980;73.388;2023-08-06T19:22:08;12.32;;;3.42;;
50291;SDS011;36190;54.980;73.388;2023-08-06T19:24:37;7.30;;;2.92;;
50291;SDS011;36190;54.980;73.388;2023-08-06T19:27:06;6.82;;;2.55;;
50291;SDS011;36190;54.980;73.388;2023-08-06T19:29:33;8.85;;;2.85;;
50291;SDS011;36190;54.980;73.388;2023-08-06T19:32:00;6.47;;;2.50;;
50291;SDS011;36190;54.980;73.388;2023-08-06T19:34:29;6.32;;;2.53;;
50291;SDS011;36190;54.980;73.388;2023-08-06T19:36:56;5.88;;;2.53;;
50291;SDS011;36190;54.980;73.388;2023-08-06T19:39:23;6.60;;;2.97;;
50291;SDS011;36190;54.980;73.388;2023-08-06T19:41:52;8.38;;;2.95;;
50291;SDS011;36190;54.980;73.388;2023-08-06T19:44:20;6.45;;;2.88;;
50291;SDS011;36190;54.980;73.388;2023-08-06T19:46:48;6.60;;;2.88;;
50291;SDS011;36190;54.980;73.388;2023-08-06T19:49:15;5.85;;;2.85;;
50291;SDS011;36190;54.980;73.388;2023-08-06T19:51:42;6.93;;;3.22;;
50291;SDS011;36190;54.980;73.388;2023-08-06T19:54:10;5.63;;;2.72;;
50291;SDS011;36190;54.980;73.388;2023-08-06T19:56:38;9.35;;;3.08;;
50291;SDS011;36190;54.980;73.388;2023-08-06T19:59:07;7.65;;;2.90;;
50291;SDS011;36190;54.980;73.388;2023-08-06T20:01:34;8.02;;;2.95;;
50291;SDS011;36190;54.980;73.388;2023-08-06T20:04:02;7.50;;;3.03;;
50291;SDS011;36190;54.980;73.388;2023-08-06T20:06:29;5.32;;;2.72;;
50291;SDS011;36190;54.980;73.388;2023-08-06T20:08:57;8.55;;;2.85;;
50291;SDS011;36190;54.980;73.388;2023-08-06T20:11:24;7.55;;;2.90;;
50291;SDS011;36190;54.980;73.388;2023-08-06T20:13:53;7.35;;;2.67;;
50291;SDS011;36190;54.980;73.388;2023-08-06T20:16:22;9.05;;;3.00;;
50291;SDS011;36190;54.980;73.388;2023-08-06T20:18:49;7.13;;;2.95;;
50291;SDS011;36190;54.980;73.388;2023-08-06T20:21:17;6.47;;;3.00;;
50291;SDS011;36190;54.980;73.388;2023-08-06T20:23:44;6.60;;;2.80;;
50291;SDS011;36190;54.980;73.388;2023-08-06T20:26:12;9.10;;;2.72;;
50291;SDS011;36190;54.980;73.388;2023-08-06T20:28:40;7.45;;;2.80;;
50291;SDS011;36190;54.980;73.388;2023-08-06T20:31:08;6.00;;;2.75;;
50291;SDS011;36190;54.980;73.388;2023-08-06T20:33:37;7.35;;;3.15;;
50291;SDS011;36190;54.980;73.388;2023-08-06T20:36:04;7.90;;;3.10;;
50291;SDS011;36190;54.980;73.388;2023-08-06T20:38:32;8.75;;;3.20;;
50291;SDS011;36190;54.980;73.388;2023-08-06T20:40:59;7.53;;;2.95;;
50291;SDS011;36190;54.980;73.388;2023-08-06T20:43:27;6.57;;;2.65;;
50291;SDS011;36190;54.980;73.388;2023-08-06T20:45:54;7.32;;;2.80;;
50291;SDS011;36190;54.980;73.388;2023-08-06T20:48:23;8.63;;;2.90;;
50291;SDS011;36190;54.980;73.388;2023-08-06T20:50:52;5.10;;;2.70;;
50291;SDS011;36190;54.980;73.388;2023-08-06T20:53:20;6.53;;;2.78;;
50291;SDS011;36190;54.980;73.388;2023-08-06T20:55:56;5.32;;;2.75;;
50291;SDS011;36190;54.980;73.388;2023-08-06T20:58:24;6.65;;;2.75;;
50291;SDS011;36190;54.980;73.388;2023-08-06T21:00:53;7.45;;;2.70;;
50291;SDS011;36190;54.980;73.388;2023-08-06T21:03:21;6.00;;;2.60;;
50291;SDS011;36190;54.980;73.388;2023-08-06T21:05:58;5.47;;;2.28;;
50291;SDS011;36190;54.980;73.388;2023-08-06T21:08:26;6.90;;;2.42;;
50291;SDS011;36190;54.980;73.388;2023-08-06T21:10:53;5.63;;;2.60;;
50291;SDS011;36190;54.980;73.388;2023-08-06T21:13:21;5.30;;;2.40;;
50291;SDS011;36190;54.980;73.388;2023-08-06T21:15:53;6.57;;;2.60;;
50291;SDS011;36190;54.980;73.388;2023-08-06T21:18:22;4.55;;;2.60;;
50291;SDS011;36190;54.980;73.388;2023-08-06T21:20:52;5.07;;;2.65;;
50291;SDS011;36190;54.980;73.388;2023-08-06T21:23:22;6.05;;;2.80;;
50291;SDS011;36190;54.980;73.388;2023-08-06T21:25:54;6.13;;;2.83;;
50291;SDS011;36190;54.980;73.388;2023-08-06T21:28:23;6.55;;;2.80;;
50291;SDS011;36190;54.980;73.388;2023-08-06T21:30:54;5.18;;;2.65;;
50291;SDS011;36190;54.980;73.388;2023-08-06T21:33:23;5.53;;;2.67;;
50291;SDS011;36190;54.980;73.388;2023-08-06T21:35:51;6.63;;;2.40;;
50291;SDS011;36190;54.980;73.388;2023-08-06T21:38:19;4.53;;;2.40;;
50291;SDS011;36190;54.980;73.388;2023-08-06T21:40:48;5.28;;;2.55;;
50291;SDS011;36190;54.980;73.388;2023-08-06T21:43:15;5.18;;;2.45;;
50291;SDS011;36190;54.980;73.388;2023-08-06T21:45:43;6.88;;;2.90;;
50291;SDS011;36190;54.980;73.388;2023-08-06T21:48:10;6.00;;;2.70;;
50291;SDS011;36190;54.980;73.388;2023-08-06T21:50:37;5.63;;;2.47;;
50291;SDS011;36190;54.980;73.388;2023-08-06T21:53:05;5.30;;;2.53;;
50291;SDS011;36190;54.980;73.388;2023-08-06T21:55:32;5.53;;;2.55;;
50291;SDS011;36190;54.980;73.388;2023-08-06T21:58:01;5.95;;;2.63;;
50291;SDS011;36190;54.980;73.388;2023-08-06T22:00:29;5.32;;;2.50;;
50291;SDS011;36190;54.980;73.388;2023-08-06T22:02:56;5.07;;;2.30;;
50291;SDS011;36190;54.980;73.388;2023-08-06T22:05:24;4.78;;;2.58;;
50291;SDS011;36190;54.980;73.388;2023-08-06T22:07:51;7.25;;;2.58;;
50291;SDS011;36190;54.980;73.388;2023-08-06T22:10:19;6.25;;;2.90;;
50291;SDS011;36190;54.980;73.388;2023-08-06T22:12:46;6.05;;;2.55;;
50291;SDS011;36190;54.980;73.388;2023-08-06T22:15:15;5.50;;;2.55;;
50291;SDS011;36190;54.980;73.388;2023-08-06T22:17:43;6.53;;;2.75;;
50291;SDS011;36190;54.980;73.388;2023-08-06T22:20:10;7.22;;;2.60;;
50291;SDS011;36190;54.980;73.388;2023-08-06T22:22:38;4.80;;;2.60;;
50291;SDS011;36190;54.980;73.388;2023-08-06T22:25:06;4.85;;;2.45;;
50291;SDS011;36190;54.980;73.388;2023-08-06T22:27:34;4.28;;;2.55;;
50291;SDS011;36190;54.980;73.388;2023-08-06T22:30:02;6.30;;;3.03;;
50291;SDS011;36190;54.980;73.388;2023-08-06T22:32:31;7.40;;;2.80;;
50291;SDS011;36190;54.980;73.388;2023-08-06T22:34:58;5.47;;;2.47;;
50291;SDS011;36190;54.980;73.388;2023-08-06T22:37:26;4.22;;;2.40;;
50291;SDS011;36190;54.980;73.388;2023-08-06T22:39:54;11.43;;;2.83;;
50291;SDS011;36190;54.980;73.388;2023-08-06T22:42:24;6.93;;;2.30;;
50291;SDS011;36190;54.980;73.388;2023-08-06T22:44:52;5.03;;;2.63;;
50291;SDS011;36190;54.980;73.388;2023-08-06T22:47:20;7.07;;;2.70;;
50291;SDS011;36190;54.980;73.388;2023-08-06T22:49:49;6.43;;;2.70;;
50291;SDS011;36190;54.980;73.388;2023-08-06T22:52:17;5.20;;;2.50;;
50291;SDS011;36190;54.980;73.388;2023-08-06T22:54:44;5.32;;;2.47;;
50291;SDS011;36190;54.980;73.388;2023-08-06T22:57:11;7.25;;;2.60;;
50291;SDS011;36190;54.980;73.388;2023-08-06T22:59:39;6.43;;;2.72;;
50291;SDS011;36190;54.980;73.388;2023-08-06T23:02:06;7.15;;;2.67;;
50291;SDS011;36190;54.980;73.388;2023-08-06T23:04:34;4.47;;;2.60;;
50291;SDS011;36190;54.980;73.388;2023-08-06T23:07:03;5.30;;;2.85;;
50291;SDS011;36190;54.980;73.388;2023-08-06T23:09:31;4.97;;;2.58;;
50291;SDS011;36190;54.980;73.388;2023-08-06T23:11:58;5.35;;;2.85;;
50291;SDS011;36190;54.980;73.388;2023-08-06T23:14:26;5.65;;;2.65;;
50291;SDS011;36190;54.980;73.388;2023-08-06T23:16:53;7.25;;;2.83;;
50291;SDS011;36190;54.980;73.388;2023-08-06T23:19:21;7.40;;;2.97;;
50291;SDS011;36190;54.980;73.388;2023-08-06T23:21:48;7.75;;;2.90;;
50291;SDS011;36190;54.980;73.388;2023-08-06T23:24:17;6.75;;;2.45;;
50291;SDS011;36190;54.980;73.388;2023-08-06T23:26:44;10.05;;;2.92;;
50291;SDS011;36190;54.980;73.388;2023-08-06T23:29:12;5.38;;;2.60;;
50291;SDS011;36190;54.980;73.388;2023-08-06T23:31:39;5.75;;;2.75;;
50291;SDS011;36190;54.980;73.388;2023-08-06T23:34:07;5.47;;;2.58;;
50291;SDS011;36190;54.980;73.388;2023-08-06T23:36:34;6.13;;;2.70;;
50291;SDS011;36190;54.980;73.388;2023-08-06T23:39:02;6.30;;;2.50;;
50291;SDS011;36190;54.980;73.388;2023-08-06T23:41:31;7.15;;;3.00;;
50291;SDS011;36190;54.980;73.388;2023-08-06T23:43:58;7.30;;;2.80;;
50291;SDS011;36190;54.980;73.388;2023-08-06T23:46:26;6.15;;;2.78;;
50291;SDS011;36190;54.980;73.388;2023-08-06T23:48:53;6.15;;;2.83;;
50291;SDS011;36190;54.980;73.388;2023-08-06T23:51:21;5.63;;;2.75;;
50291;SDS011;36190;54.980;73.388;2023-08-06T23:53:48;6.63;;;2.90;;
50291;SDS011;36190;54.980;73.388;2023-08-06T23:56:16;5.57;;;2.80;;
50291;SDS011;36190;54.980;73.388;2023-08-06T23:58:45;7.35;;;2.67;;
